Nearby METAR Reports

 

EGSS - Stansted Airport, United Kingdom
Distance from station: NW 15mi, 24km
Updated: 10/08/2020 18:50
Clear
Clear
 Wind from E
Wind: E 12 mph , 19 km/h
Temperature: 30°C
Heat Index: 31°C
Dew Point: 18°C
Humidity: 49%
Barometer: 1013 hPa
Clouds: Clear
Visibility: 6 miles , 10 km
2020/08/10 17:50 EGSS 101750Z AUTO 10010KT 9999 NCD 30/18 Q1013
EGMC - Southend-On-Sea, United Kingdom
Distance from station: SE 15mi, 25km
Updated: 10/08/2020 18:50
Clear
Clear
 Wind from ENE
Wind: ENE 10 mph , 17 km/h
Temperature: 25°C
Dew Point: 18°C
Humidity: 65%
Barometer: 1013 hPa
Summary: Clear
Visibility: greater than 7 miles , 10 km
2020/08/10 17:50 EGMC 101750Z 07009KT CAVOK 25/18 Q1013
 
EGLC - London City Airp, United Kingdom
Distance from station: SW 24mi, 39km
Updated: 10/08/2020 18:50
Clear
Clear
 Wind from ESE
Wind: ESE 14 mph , 22 km/h
Temperature: 29°C
Heat Index: 29°C
Dew Point: 17°C
Humidity: 48%
Barometer: 1013 hPa
Clouds: Clear
Visibility: 6 miles , 10 km
2020/08/10 17:50 EGLC 101750Z AUTO 11012KT 9999 NCD 29/17 Q1013
EGUW - Wattisham Raf, United Kingdom
Distance from station: NE 34mi, 54km
Updated: 10/08/2020 18:50
Clear
Clear
 Wind from E
Wind: E 9 mph , 15 km/h
Temperature: 28°C
Heat Index: 28°C
Dew Point: 16°C
Humidity: 48%
Barometer: 1014 hPa
Summary: Clear
Visibility: greater than 7 miles , 10 km
2020/08/10 17:50 EGUW 101750Z 09008KT CAVOK 28/16 Q1014 NOSIG RMK BLU BLU
 
EGGW - Luton Airport, United Kingdom
Distance from station: WNW 37mi, 59km
Updated: 10/08/2020 18:50
Clear
Clear
 Wind from SE
Wind: SE 9 mph , 15 km/h
Temperature: 31°C
Dew Point: 14°C
Humidity: 35%
Barometer: 1013 hPa
Clouds: Clear
Visibility: 6 miles , 10 km
2020/08/10 17:50 EGGW 101750Z AUTO 13008KT 090V170 9999 NCD 31/14 Q1013
EGWU - Northolt Raf, United Kingdom
Distance from station: WSW 40mi, 64km
Updated: 10/08/2020 18:50
Clear
Clear
 Wind from E
Wind: E 13 mph , 20 km/h
Temperature: 32°C
Heat Index: 33°C
Dew Point: 17°C
Humidity: 41%
Barometer: 1012 hPa
Summary: Clear
Visibility: greater than 7 miles , 10 km
2020/08/10 17:50 EGWU 101750Z 10011KT CAVOK 32/17 Q1012 NOSIG RMK BLU BLU